createdAt,value
2022-08-20T00:00:47.474Z,6.15
2022-08-20T00:03:32.243Z,5.50
2022-08-20T00:06:15.448Z,5.93
2022-08-20T00:08:46.622Z,5.03
2022-08-20T00:11:18.052Z,6.40
2022-08-20T00:13:51.457Z,7.95
2022-08-20T00:16:21.085Z,6.88
2022-08-20T00:18:55.714Z,6.57
2022-08-20T00:21:25.599Z,7.10
2022-08-20T00:23:55.156Z,6.97
2022-08-20T00:26:26.634Z,7.47
2022-08-20T00:28:58.397Z,7.22
2022-08-20T00:31:28.739Z,7.35
2022-08-20T00:33:57.232Z,7.30
2022-08-20T00:36:32.352Z,9.00
2022-08-20T00:39:04.400Z,8.77
2022-08-20T00:41:34.768Z,8.40
2022-08-20T00:44:06.751Z,8.00
2022-08-20T00:46:42.045Z,7.78
2022-08-20T00:49:16.601Z,6.20
2022-08-20T00:51:51.805Z,7.65
2022-08-20T00:54:20.913Z,6.13
2022-08-20T00:56:53.535Z,7.85
2022-08-20T00:59:24.069Z,7.57
2022-08-20T01:01:55.247Z,7.55
2022-08-20T01:04:28.644Z,8.30
2022-08-20T01:06:59.606Z,6.57
2022-08-20T01:09:49.562Z,9.10
2022-08-20T01:12:19.649Z,7.32
2022-08-20T01:14:50.871Z,8.60
2022-08-20T01:17:22.587Z,9.00
2022-08-20T01:19:57.639Z,9.00
2022-08-20T01:22:56.957Z,8.18
2022-08-20T01:25:31.694Z,8.32
2022-08-20T01:28:00.536Z,9.15
2022-08-20T01:30:29.839Z,10.23
2022-08-20T01:33:02.302Z,8.30
2022-08-20T01:35:37.648Z,8.95
2022-08-20T01:38:07.297Z,8.13
2022-08-20T01:40:57.814Z,8.95
2022-08-20T01:43:26.827Z,8.50
2022-08-20T01:45:56.211Z,8.52
2022-08-20T01:48:24.678Z,8.70
2022-08-20T01:51:04.661Z,7.75
2022-08-20T01:53:35.847Z,6.97
2022-08-20T01:56:05.432Z,8.10
2022-08-20T01:58:37.443Z,7.10
2022-08-20T02:01:24.540Z,8.07
2022-08-20T02:03:56.758Z,7.22
2022-08-20T02:06:27.114Z,8.45
2022-08-20T02:08:57.645Z,8.23
2022-08-20T02:11:27.792Z,8.95
2022-08-20T02:13:58.690Z,7.30
2022-08-20T02:16:31.099Z,7.85
2022-08-20T02:19:09.393Z,8.68
2022-08-20T02:21:45.708Z,9.25
2022-08-20T02:24:16.245Z,7.90
2022-08-20T02:26:48.392Z,9.13
2022-08-20T02:29:19.269Z,7.65
2022-08-20T02:32:24.163Z,8.75
2022-08-20T02:34:41.170Z,7.68
2022-08-20T02:37:14.536Z,8.23
2022-08-20T02:39:43.157Z,8.63
2022-08-20T02:42:12.400Z,8.77
2022-08-20T02:44:40.964Z,8.85
2022-08-20T02:47:09.706Z,8.48
2022-08-20T02:49:38.308Z,9.23
2022-08-20T02:52:07.109Z,9.20
2022-08-20T02:54:37.519Z,10.13
2022-08-20T02:57:06.654Z,8.50
2022-08-20T02:59:35.162Z,8.65
2022-08-20T03:02:03.611Z,8.95
2022-08-20T03:04:33.423Z,9.60
2022-08-20T03:07:01.853Z,8.77
2022-08-20T03:09:31.455Z,8.50
2022-08-20T03:12:08.826Z,8.90
2022-08-20T03:14:40.860Z,8.98
2022-08-20T03:17:17.612Z,10.02
2022-08-20T03:19:47.383Z,7.63
2022-08-20T03:22:16.087Z,8.63
2022-08-20T03:24:50.425Z,7.85
2022-08-20T03:27:26.196Z,8.32
2022-08-20T03:30:02.799Z,8.05
2022-08-20T03:32:35.882Z,7.15
2022-08-20T03:35:08.404Z,7.90
2022-08-20T03:37:48.242Z,7.63
2022-08-20T03:40:24.608Z,7.68
2022-08-20T03:42:54.723Z,7.82
2022-08-20T03:45:24.661Z,7.93
2022-08-20T03:47:55.432Z,5.95
2022-08-20T03:50:27.159Z,7.32
2022-08-20T03:52:58.107Z,4.47
2022-08-20T03:55:27.914Z,6.15
2022-08-20T03:58:01.096Z,5.57
2022-08-20T04:00:37.402Z,6.90
2022-08-20T04:03:19.172Z,5.05
2022-08-20T04:05:49.311Z,6.85
2022-08-20T04:08:20.561Z,5.47
2022-08-20T04:10:51.989Z,6.18
2022-08-20T04:13:23.646Z,7.15
2022-08-20T04:15:55.549Z,6.90
2022-08-20T04:18:26.228Z,7.53
2022-08-20T04:20:56.800Z,7.07
2022-08-20T04:23:26.405Z,6.35
2022-08-20T04:25:56.501Z,7.55
2022-08-20T04:28:27.319Z,3.90
2022-08-20T04:30:58.718Z,6.07
2022-08-20T04:33:35.678Z,4.78
2022-08-20T04:36:06.598Z,6.65
2022-08-20T04:38:50.068Z,5.63
2022-08-20T04:41:23.408Z,6.22
2022-08-20T04:43:56.092Z,5.72
2022-08-20T04:46:27.457Z,5.65
2022-08-20T04:48:57.600Z,5.43
2022-08-20T04:51:27.492Z,5.72
2022-08-20T04:53:57.333Z,5.28
2022-08-20T04:56:30.961Z,7.30
2022-08-20T04:59:00.600Z,7.55
2022-08-20T05:01:35.667Z,6.45
2022-08-20T05:04:07.945Z,6.35
2022-08-20T05:06:37.647Z,7.85
2022-08-20T05:09:08.687Z,9.13
2022-08-20T05:11:40.755Z,7.63
2022-08-20T05:14:12.217Z,7.95
2022-08-20T05:16:42.423Z,7.50
2022-08-20T05:19:12.538Z,8.48
2022-08-20T05:21:43.158Z,7.75
2022-08-20T05:24:12.428Z,7.90
2022-08-20T05:26:43.692Z,8.55
2022-08-20T05:29:13.182Z,7.95
2022-08-20T05:31:46.760Z,8.90
2022-08-20T05:34:15.661Z,7.78
2022-08-20T05:36:49.061Z,9.07
2022-08-20T05:39:20.546Z,8.38
2022-08-20T05:41:51.251Z,8.93
2022-08-20T05:44:20.081Z,8.30
2022-08-20T05:46:49.173Z,9.07
2022-08-20T05:49:20.970Z,8.30
2022-08-20T05:51:52.108Z,7.97
2022-08-20T05:54:22.008Z,8.27
2022-08-20T05:56:51.767Z,8.35
2022-08-20T05:59:24.217Z,7.18
2022-08-20T06:01:55.301Z,7.43
2022-08-20T06:04:28.506Z,6.00
2022-08-20T06:07:07.379Z,6.40
2022-08-20T06:09:42.272Z,6.25
2022-08-20T06:12:13.028Z,6.03
2022-08-20T06:14:47.311Z,5.00
2022-08-20T06:17:17.383Z,6.25
2022-08-20T06:19:48.275Z,5.05
2022-08-20T06:22:27.188Z,5.32
2022-08-20T06:24:56.715Z,5.13
2022-08-20T06:27:25.801Z,4.60
2022-08-20T06:29:54.777Z,5.15
2022-08-20T06:32:31.882Z,3.90
2022-08-20T06:35:03.604Z,4.00
2022-08-20T06:37:39.652Z,4.22
2022-08-20T06:40:11.929Z,4.97
2022-08-20T06:42:53.458Z,5.45
2022-08-20T06:45:25.034Z,5.07
2022-08-20T06:48:10.742Z,6.35
2022-08-20T06:50:47.456Z,5.38
2022-08-20T06:53:19.510Z,7.28
2022-08-20T06:55:55.225Z,8.93
2022-08-20T06:58:35.696Z,6.45
2022-08-20T07:01:13.657Z,7.72
2022-08-20T07:03:54.791Z,8.68
2022-08-20T07:06:26.171Z,6.45
2022-08-20T07:08:55.692Z,10.48
2022-08-20T07:11:28.172Z,11.77
2022-08-20T07:13:58.972Z,11.45
2022-08-20T07:16:32.945Z,12.80
2022-08-20T07:19:01.324Z,13.32
2022-08-20T07:21:31.622Z,15.35
2022-08-20T07:24:00.873Z,13.88
2022-08-20T07:26:34.576Z,14.60
2022-08-20T07:29:03.256Z,15.20
2022-08-20T07:31:50.489Z,15.40
2022-08-20T07:34:20.096Z,16.35
2022-08-20T07:36:50.521Z,15.23
2022-08-20T07:39:18.983Z,15.80
2022-08-20T07:42:03.213Z,16.73
2022-08-20T07:44:39.959Z,13.93
2022-08-20T07:47:09.128Z,15.95
2022-08-20T07:49:40.083Z,15.32
2022-08-20T07:52:22.678Z,14.37
2022-08-20T07:54:51.272Z,15.77
2022-08-20T07:57:19.669Z,17.08
2022-08-20T07:59:51.569Z,17.20
2022-08-20T08:02:22.698Z,14.85
2022-08-20T08:04:52.642Z,16.65
2022-08-20T08:07:26.387Z,14.77
2022-08-20T08:09:56.185Z,16.55
2022-08-20T08:12:31.840Z,15.35
2022-08-20T08:15:04.896Z,15.45
2022-08-20T08:17:44.501Z,14.82
2022-08-20T08:20:14.534Z,14.98
2022-08-20T08:22:57.561Z,15.10
2022-08-20T08:25:26.089Z,15.88
2022-08-20T08:27:54.974Z,13.95
2022-08-20T08:30:23.473Z,13.30
2022-08-20T08:33:19.401Z,15.75
2022-08-20T08:35:50.170Z,12.88
2022-08-20T08:38:19.261Z,11.68
2022-08-20T08:40:59.127Z,14.07
2022-08-20T08:43:31.888Z,13.57
2022-08-20T08:46:02.923Z,11.43
2022-08-20T08:48:37.313Z,12.73
2022-08-20T08:53:53.521Z,12.13
2022-08-20T08:56:25.146Z,12.65
2022-08-20T08:58:55.564Z,12.57
2022-08-20T09:01:56.345Z,10.88
2022-08-20T09:04:43.086Z,10.80
2022-08-20T09:07:16.226Z,10.98
2022-08-20T09:09:47.383Z,9.50
2022-08-20T09:12:19.289Z,10.07
2022-08-20T09:14:52.353Z,10.77
2022-08-20T09:17:22.990Z,10.40
2022-08-20T09:19:54.989Z,11.05
2022-08-20T09:22:26.042Z,9.18
2022-08-20T09:25:09.479Z,9.95
2022-08-20T09:27:39.511Z,9.68
2022-08-20T09:30:11.911Z,9.10
2022-08-20T09:32:53.425Z,10.20
2022-08-20T09:35:24.487Z,9.52
2022-08-20T09:37:53.745Z,8.73
2022-08-20T09:40:26.547Z,8.18
2022-08-20T09:42:56.151Z,8.27
2022-08-20T09:45:29.467Z,7.35
2022-08-20T09:48:00.882Z,8.00
2022-08-20T09:50:34.392Z,8.25
2022-08-20T09:53:05.461Z,8.25
2022-08-20T09:55:34.258Z,7.38
2022-08-20T09:58:24.796Z,6.97
2022-08-20T10:00:53.364Z,8.15
2022-08-20T10:03:25.884Z,7.72
2022-08-20T10:05:54.690Z,9.43
2022-08-20T10:08:24.025Z,7.85
2022-08-20T10:10:53.197Z,8.60
2022-08-20T10:13:22.048Z,8.35
2022-08-20T10:15:53.300Z,10.25
2022-08-20T10:18:26.624Z,8.68
2022-08-20T10:20:56.511Z,6.03
2022-08-20T10:23:26.553Z,7.82
2022-08-20T10:25:56.462Z,8.60
2022-08-20T10:28:24.933Z,8.00
2022-08-20T10:30:54.171Z,8.23
2022-08-20T10:33:29.879Z,8.52
2022-08-20T10:36:06.584Z,8.57
2022-08-20T10:38:37.294Z,7.75
2022-08-20T10:41:07.297Z,8.27
2022-08-20T10:43:40.722Z,8.45
2022-08-20T10:46:11.115Z,8.57
2022-08-20T10:48:39.954Z,8.02
2022-08-20T10:51:08.620Z,8.57
2022-08-20T10:53:42.006Z,7.75
2022-08-20T10:56:15.707Z,8.00
2022-08-20T10:58:46.672Z,8.10
2022-08-20T11:01:31.299Z,7.82
2022-08-20T11:04:02.886Z,8.27
2022-08-20T11:06:35.941Z,7.73
2022-08-20T11:09:05.729Z,7.72
2022-08-20T11:11:44.404Z,8.02
2022-08-20T11:14:22.185Z,8.23
2022-08-20T11:16:53.374Z,8.38
2022-08-20T11:19:23.725Z,8.93
2022-08-20T11:21:52.074Z,8.23
2022-08-20T11:24:24.719Z,9.38
2022-08-20T11:26:54.447Z,7.95
2022-08-20T11:29:24.701Z,8.43
2022-08-20T11:31:53.126Z,8.32
2022-08-20T11:34:21.421Z,8.40
2022-08-20T11:36:50.053Z,7.63
2022-08-20T11:39:19.796Z,7.78
2022-08-20T11:41:58.980Z,12.38
2022-08-20T11:44:28.657Z,10.77
2022-08-20T11:46:59.902Z,8.38
2022-08-20T11:49:28.624Z,7.65
2022-08-20T11:51:57.287Z,7.68
2022-08-20T11:54:28.867Z,8.43
2022-08-20T11:57:02.251Z,7.10
2022-08-20T11:59:32.179Z,6.88
2022-08-20T12:02:02.981Z,7.13
2022-08-20T12:04:35.942Z,7.25
2022-08-20T12:07:09.295Z,6.15
2022-08-20T12:09:41.948Z,6.93
2022-08-20T12:12:33.142Z,7.55
2022-08-20T12:15:03.030Z,8.77
2022-08-20T12:17:35.528Z,7.32
2022-08-20T12:20:06.851Z,6.88
2022-08-20T12:22:48.004Z,7.65
2022-08-20T12:25:17.200Z,7.68
2022-08-20T12:27:47.331Z,7.88
2022-08-20T12:30:19.865Z,8.20
2022-08-20T12:33:07.629Z,7.28
2022-08-20T12:35:36.615Z,7.50
2022-08-20T12:38:06.547Z,6.88
2022-08-20T12:40:36.697Z,6.80
2022-08-20T12:43:06.355Z,7.20
2022-08-20T12:45:40.141Z,7.10
2022-08-20T12:48:13.588Z,6.50
2022-08-20T12:50:53.110Z,6.63
2022-08-20T12:53:42.446Z,5.93
2022-08-20T12:56:11.994Z,6.05
2022-08-20T12:58:40.459Z,5.70
2022-08-20T13:01:10.851Z,5.47
2022-08-20T13:03:43.149Z,5.10
2022-08-20T13:06:20.511Z,5.40
2022-08-20T13:08:51.121Z,5.55
2022-08-20T13:11:19.813Z,5.50
2022-08-20T13:13:48.339Z,4.63
2022-08-20T13:16:17.827Z,4.78
2022-08-20T13:18:48.518Z,4.95
2022-08-20T13:21:20.058Z,6.35
2022-08-20T13:23:52.275Z,5.85
2022-08-20T13:26:20.923Z,5.00
2022-08-20T13:28:54.348Z,4.47
2022-08-20T13:31:22.829Z,4.55
2022-08-20T13:33:52.190Z,4.93
2022-08-20T13:36:22.584Z,5.35
2022-08-20T13:38:53.692Z,5.28
2022-08-20T13:41:22.477Z,4.50
2022-08-20T13:43:51.690Z,4.35
2022-08-20T13:46:28.394Z,5.20
2022-08-20T13:48:57.892Z,5.30
2022-08-20T13:51:27.739Z,5.18
2022-08-20T13:53:59.195Z,4.47
2022-08-20T13:56:32.034Z,5.40
2022-08-20T13:59:02.021Z,4.85
2022-08-20T14:01:32.332Z,4.35
2022-08-20T14:04:00.955Z,4.05
2022-08-20T14:06:31.812Z,4.68
2022-08-20T14:09:00.480Z,5.10
2022-08-20T14:11:29.436Z,5.20
2022-08-20T14:14:00.026Z,6.10
2022-08-20T14:16:34.742Z,4.25
2022-08-20T14:19:05.205Z,5.47
2022-08-20T14:21:35.335Z,4.13
2022-08-20T14:24:04.173Z,3.53
2022-08-20T14:26:34.955Z,3.83
2022-08-20T14:29:04.782Z,3.38
2022-08-20T14:31:34.880Z,4.13
2022-08-20T14:34:59.429Z,4.15
2022-08-20T14:37:43.258Z,3.42
2022-08-20T14:40:16.276Z,3.60
2022-08-20T14:42:47.770Z,4.07
2022-08-20T14:45:20.835Z,3.70
2022-08-20T14:47:59.294Z,3.13
2022-08-20T14:50:31.376Z,3.60
2022-08-20T14:53:15.555Z,3.33
2022-08-20T14:55:44.169Z,3.63
2022-08-20T14:58:15.050Z,2.92
2022-08-20T15:00:46.095Z,3.17
2022-08-20T15:03:33.934Z,3.22
2022-08-20T15:06:02.372Z,2.78
2022-08-20T15:08:41.000Z,3.17
2022-08-20T15:11:12.107Z,2.53
2022-08-20T15:13:40.860Z,2.58
2022-08-20T15:16:09.496Z,2.78
2022-08-20T15:18:38.542Z,3.70
2022-08-20T15:21:10.290Z,1.55
2022-08-20T15:23:39.767Z,1.90
2022-08-20T15:26:08.622Z,2.03
2022-08-20T15:28:38.086Z,1.83
2022-08-20T15:31:12.291Z,2.00
2022-08-20T15:33:41.804Z,2.27
2022-08-20T15:36:10.845Z,1.25
2022-08-20T15:38:40.700Z,1.13
2022-08-20T15:41:18.118Z,1.10
2022-08-20T15:43:47.049Z,1.45
2022-08-20T15:46:15.994Z,1.35
2022-08-20T15:48:45.914Z,0.90
2022-08-20T15:51:35.062Z,1.73
2022-08-20T15:54:03.340Z,1.02
2022-08-20T15:56:51.120Z,1.50
2022-08-20T15:59:20.003Z,1.27
2022-08-20T16:02:01.515Z,1.83
2022-08-20T16:04:33.552Z,1.10
2022-08-20T16:07:07.428Z,1.63
2022-08-20T16:09:54.563Z,3.50
2022-08-20T16:12:37.798Z,1.50
2022-08-20T16:15:10.798Z,1.00
2022-08-20T16:18:02.136Z,1.52
2022-08-20T16:20:39.775Z,1.50
2022-08-20T16:23:09.814Z,1.33
2022-08-20T16:25:57.363Z,1.35
2022-08-20T16:28:28.036Z,1.10
2022-08-20T16:31:01.279Z,1.23
2022-08-20T16:33:38.153Z,1.23
2022-08-20T16:36:30.886Z,1.08
2022-08-20T16:39:02.564Z,1.10
2022-08-20T16:41:35.644Z,1.40
2022-08-20T16:44:13.198Z,1.20
2022-08-20T16:46:48.064Z,1.02
2022-08-20T16:49:16.947Z,1.15
2022-08-20T16:51:51.890Z,1.30
2022-08-20T16:54:29.671Z,1.50
2022-08-20T16:57:02.805Z,1.45
2022-08-20T16:59:32.752Z,1.67
2022-08-20T17:02:06.991Z,1.30
2022-08-20T17:04:44.479Z,5.28
2022-08-20T17:07:50.653Z,4.68
2022-08-20T17:10:21.307Z,2.63
2022-08-20T17:12:55.320Z,2.08
2022-08-20T17:15:26.556Z,2.95
2022-08-20T17:17:55.939Z,2.10
2022-08-20T17:20:29.291Z,1.83
2022-08-20T17:23:11.835Z,1.73
2022-08-20T17:25:40.535Z,1.50
2022-08-20T17:28:18.236Z,1.55
2022-08-20T17:30:47.459Z,2.20
2022-08-20T17:33:30.725Z,1.80
2022-08-20T17:36:01.620Z,1.50
2022-08-20T17:38:42.306Z,2.63
2022-08-20T17:41:17.190Z,2.17
2022-08-20T17:43:46.989Z,2.33
2022-08-20T17:46:17.468Z,2.45
2022-08-20T17:48:46.989Z,2.53
2022-08-20T17:51:17.701Z,2.20
2022-08-20T17:54:00.034Z,2.33
2022-08-20T17:56:44.356Z,2.40
2022-08-20T17:59:23.903Z,2.10
2022-08-20T18:01:52.770Z,1.40
2022-08-20T18:04:22.567Z,7.35
2022-08-20T18:06:59.332Z,1.70
2022-08-20T18:09:37.863Z,2.40
2022-08-20T18:12:34.175Z,1.40
2022-08-20T18:15:24.299Z,1.65
2022-08-20T18:17:53.085Z,2.17
2022-08-20T18:20:37.781Z,2.47
2022-08-20T18:23:18.183Z,2.80
2022-08-20T18:25:51.755Z,3.92
2022-08-20T18:28:21.513Z,3.83
2022-08-20T18:30:57.079Z,2.72
2022-08-20T18:33:31.256Z,3.20
2022-08-20T18:36:07.241Z,3.28
2022-08-20T18:38:42.073Z,5.07
2022-08-20T18:41:30.410Z,4.20
2022-08-20T18:44:12.948Z,3.60
2022-08-20T18:46:53.760Z,2.97
2022-08-20T18:49:30.904Z,3.80
2022-08-20T18:51:59.748Z,4.03
2022-08-20T18:54:32.929Z,4.20
2022-08-20T18:57:09.479Z,5.88
2022-08-20T18:59:46.027Z,4.15
2022-08-20T19:02:24.119Z,3.47
2022-08-20T19:05:02.294Z,3.65
2022-08-20T19:07:45.840Z,3.67
2022-08-20T19:10:28.042Z,2.38
2022-08-20T19:13:16.235Z,2.30
2022-08-20T19:15:54.248Z,2.47
2022-08-20T19:18:25.125Z,2.83
2022-08-20T19:20:58.698Z,1.95
2022-08-20T19:23:28.263Z,2.08
2022-08-20T19:25:59.324Z,2.30
2022-08-20T19:28:40.667Z,2.35
2022-08-20T19:31:10.645Z,2.45
2022-08-20T19:33:44.178Z,2.35
2022-08-20T19:36:13.442Z,2.63
2022-08-20T19:38:52.873Z,4.22
2022-08-20T19:41:31.399Z,2.83
2022-08-20T19:44:03.412Z,3.17
2022-08-20T19:46:37.670Z,4.95
2022-08-20T19:49:13.191Z,3.50
2022-08-20T19:51:48.041Z,4.57
2022-08-20T19:54:24.484Z,4.57
2022-08-20T19:56:56.975Z,4.82
2022-08-20T19:59:27.571Z,5.30
2022-08-20T20:02:02.751Z,5.93
2022-08-20T20:04:40.009Z,5.75
2022-08-20T20:07:17.462Z,3.70
2022-08-20T20:09:48.623Z,3.47
2022-08-20T20:12:27.233Z,4.03
2022-08-20T20:14:56.238Z,3.58
2022-08-20T20:17:31.605Z,3.78
2022-08-20T20:20:03.448Z,3.50
2022-08-20T20:22:49.291Z,2.70
2022-08-20T20:25:23.113Z,3.20
2022-08-20T20:27:54.788Z,3.10
2022-08-20T20:30:33.115Z,3.63
2022-08-20T20:33:36.001Z,3.15
2022-08-20T20:36:04.484Z,3.30
2022-08-20T20:38:39.849Z,3.22
2022-08-20T20:41:24.682Z,2.65
2022-08-20T20:44:04.103Z,3.08
2022-08-20T20:46:40.363Z,2.95
2022-08-20T20:49:30.284Z,2.50
2022-08-20T20:52:03.960Z,2.67
2022-08-20T20:54:45.254Z,2.60
2022-08-20T20:57:36.344Z,2.72
2022-08-20T21:00:14.235Z,2.20
2022-08-20T21:02:50.711Z,2.72
2022-08-20T21:05:25.480Z,2.97
2022-08-20T21:07:59.337Z,3.00
2022-08-20T21:10:39.541Z,2.58
2022-08-20T21:13:08.904Z,2.95
2022-08-20T21:15:39.880Z,3.08
2022-08-20T21:18:09.579Z,2.53
2022-08-20T21:20:45.294Z,2.00
2022-08-20T21:23:14.965Z,3.03
2022-08-20T21:25:45.943Z,2.70
2022-08-20T21:28:14.530Z,3.35
2022-08-20T21:30:58.431Z,3.60
2022-08-20T21:33:32.497Z,3.10
2022-08-20T21:36:01.025Z,3.47
2022-08-20T21:38:34.907Z,2.47
2022-08-20T21:41:06.113Z,2.80
2022-08-20T21:43:39.347Z,2.30
2022-08-20T21:46:10.548Z,2.70
2022-08-20T21:48:51.077Z,2.53
2022-08-20T21:51:20.308Z,3.08
2022-08-20T21:53:52.220Z,2.63
2022-08-20T21:56:32.580Z,2.60
2022-08-20T21:59:03.946Z,2.58
2022-08-20T22:01:33.464Z,2.97
2022-08-20T22:04:05.242Z,2.45
2022-08-20T22:06:36.902Z,2.55
2022-08-20T22:09:08.788Z,2.53
2022-08-20T22:11:39.827Z,2.85
2022-08-20T22:14:12.275Z,2.92
2022-08-20T22:16:45.437Z,2.58
2022-08-20T22:19:16.505Z,2.92
2022-08-20T22:21:45.564Z,3.20
2022-08-20T22:24:18.896Z,3.95
2022-08-20T22:26:48.461Z,2.70
2022-08-20T22:29:18.841Z,3.28
2022-08-20T22:31:47.523Z,2.65
2022-08-20T22:34:17.919Z,2.70
2022-08-20T22:36:46.847Z,3.40
2022-08-20T22:39:16.482Z,2.55
2022-08-20T22:41:44.989Z,2.78
2022-08-20T22:44:14.494Z,2.55
2022-08-20T22:46:55.679Z,2.83
2022-08-20T22:49:41.521Z,2.17
2022-08-20T22:52:10.286Z,2.38
2022-08-20T22:54:39.233Z,2.72
2022-08-20T22:57:14.720Z,2.33
2022-08-20T22:59:49.758Z,2.58
2022-08-20T23:02:32.242Z,2.15
2022-08-20T23:05:07.566Z,2.67
2022-08-20T23:07:54.442Z,3.33
2022-08-20T23:10:27.126Z,3.00
2022-08-20T23:13:01.717Z,3.17
2022-08-20T23:15:45.362Z,2.80
2022-08-20T23:18:19.530Z,2.58
2022-08-20T23:20:51.430Z,2.33
2022-08-20T23:23:21.106Z,2.67
2022-08-20T23:25:51.669Z,2.42
2022-08-20T23:28:22.584Z,3.15
2022-08-20T23:30:51.280Z,2.42
2022-08-20T23:33:26.076Z,2.72
2022-08-20T23:35:55.008Z,2.55
2022-08-20T23:38:23.554Z,2.97
2022-08-20T23:40:52.238Z,2.40
2022-08-20T23:43:20.717Z,2.85
2022-08-20T23:45:50.182Z,2.75
2022-08-20T23:48:20.982Z,2.33
2022-08-20T23:50:50.090Z,2.75
2022-08-20T23:53:18.852Z,2.78
2022-08-20T23:55:47.654Z,2.83
2022-08-20T23:58:18.058Z,2.65
